createdAt,value
2018-04-18T00:04:10.581Z,11.70
2018-04-18T00:09:11.814Z,11.50
2018-04-18T00:14:14.052Z,11.40
2018-04-18T00:19:15.203Z,11.30
2018-04-18T00:24:16.576Z,11.30
2018-04-18T00:29:17.731Z,11.20
2018-04-18T00:34:19.371Z,11.20
2018-04-18T00:39:20.512Z,11.10
2018-04-18T00:44:21.656Z,11.10
2018-04-18T00:49:23.216Z,11.10
2018-04-18T00:54:24.378Z,11.10
2018-04-18T00:59:25.545Z,11.00
2018-04-18T01:04:27.050Z,11.00
2018-04-18T01:14:31.186Z,10.80
2018-04-18T01:19:33.299Z,10.70
2018-04-18T01:24:34.418Z,10.60
2018-04-18T01:29:35.581Z,10.60
2018-04-18T01:34:36.726Z,10.50
2018-04-18T01:39:38.108Z,10.40
2018-04-18T01:44:40.275Z,10.40
2018-04-18T01:49:41.509Z,10.30
2018-04-18T01:54:43.382Z,10.20
2018-04-18T01:59:44.533Z,10.20
2018-04-18T02:04:45.675Z,10.20
2018-04-18T02:09:47.907Z,10.10
2018-04-18T02:14:49.883Z,10.10
2018-04-18T02:19:51.006Z,10.00
2018-04-18T02:24:53.338Z,10.00
2018-04-18T02:29:54.847Z,10.00
2018-04-18T02:34:55.983Z,9.90
2018-04-18T02:39:57.548Z,9.80
2018-04-18T02:44:59.423Z,9.80
2018-04-18T02:50:00.575Z,9.70
2018-04-18T02:55:02.468Z,9.70
2018-04-18T03:00:03.648Z,9.70
2018-04-18T03:05:04.835Z,9.60
2018-04-18T03:10:06.912Z,9.60
2018-04-18T03:15:08.050Z,9.60
2018-04-18T03:20:10.838Z,9.90
2018-04-18T03:25:11.980Z,9.40
2018-04-18T03:30:13.111Z,9.30
2018-04-18T03:35:15.756Z,9.30
2018-04-18T03:40:16.952Z,9.30
2018-04-18T03:45:18.106Z,9.20
2018-04-18T03:50:19.455Z,9.20
2018-04-18T03:55:21.301Z,9.20
2018-04-18T04:00:26.091Z,9.20
2018-04-18T04:05:28.353Z,9.10
2018-04-18T04:10:29.536Z,8.90
2018-04-18T04:15:30.593Z,8.80
2018-04-18T04:20:50.628Z,8.70
2018-04-18T04:25:52.527Z,8.70
2018-04-18T04:30:54.386Z,8.70
2018-04-18T04:35:58.592Z,8.70
2018-04-18T04:40:59.695Z,8.80
2018-04-18T04:46:01.546Z,8.80
2018-04-18T04:51:02.676Z,8.90
2018-04-18T04:56:03.770Z,8.90
2018-04-18T05:01:04.917Z,8.90
2018-04-18T05:06:06.869Z,9.00
2018-04-18T05:11:09.680Z,9.00
2018-04-18T05:16:12.544Z,9.10
2018-04-18T05:31:19.380Z,9.70
2018-04-18T05:36:21.317Z,9.90
2018-04-18T05:41:23.399Z,10.20
2018-04-18T05:46:25.594Z,10.80
2018-04-18T05:51:27.458Z,11.60
2018-04-18T06:01:31.453Z,13.30
2018-04-18T06:26:45.999Z,16.10
2018-04-18T06:31:47.858Z,16.80
2018-04-18T06:36:50.493Z,16.90
2018-04-18T06:46:55.713Z,18.20
2018-04-18T06:51:56.834Z,18.90
2018-04-18T06:56:59.820Z,18.50
2018-04-18T07:02:01.668Z,19.00
2018-04-18T07:07:02.809Z,18.70
2018-04-18T07:12:03.932Z,18.90
2018-04-18T07:17:05.770Z,19.30
2018-04-18T07:22:07.942Z,20.20
2018-04-18T07:27:11.317Z,20.20
2018-04-18T07:32:13.901Z,21.20
2018-04-18T07:37:15.818Z,21.80
2018-04-18T07:42:16.941Z,22.20
2018-04-18T07:47:19.794Z,22.30
2018-04-18T07:52:21.647Z,23.30
2018-04-18T07:57:23.148Z,23.60
2018-04-18T08:02:24.246Z,23.60
2018-04-18T08:07:25.729Z,24.50
2018-04-18T08:12:27.586Z,24.50
2018-04-18T08:17:30.159Z,24.30
2018-04-18T08:22:32.033Z,24.00
2018-04-18T08:27:33.116Z,23.20
2018-04-18T08:32:34.222Z,23.70
2018-04-18T08:37:35.362Z,23.70
2018-04-18T08:42:37.194Z,23.60
2018-04-18T08:47:39.155Z,23.70
2018-04-18T08:52:41.022Z,23.90
2018-04-18T09:02:45.389Z,25.30
2018-04-18T09:07:46.673Z,26.20
2018-04-18T09:12:49.485Z,26.70
2018-04-18T09:22:54.231Z,28.20
2018-04-18T09:32:58.319Z,29.10
2018-04-18T09:37:59.518Z,29.40
2018-04-18T09:53:07.324Z,28.80
2018-04-18T09:58:08.465Z,27.60
2018-04-18T10:08:16.474Z,27.10
2018-04-18T10:13:18.350Z,26.90
2018-04-18T10:18:20.728Z,26.70
2018-04-18T10:23:22.912Z,25.50
2018-04-18T10:28:25.111Z,25.70
2018-04-18T10:33:26.659Z,25.80
2018-04-18T10:38:28.671Z,24.70
2018-04-18T10:58:38.752Z,25.20
2018-04-18T11:03:40.595Z,24.90
2018-04-18T11:08:41.677Z,24.10
2018-04-18T11:13:45.845Z,24.10
2018-04-18T11:18:47.309Z,24.40
2018-04-18T11:28:51.635Z,24.70
2018-04-18T11:33:53.098Z,24.30
2018-04-18T11:38:54.219Z,24.60
2018-04-18T11:43:55.975Z,24.40
2018-04-18T11:48:57.553Z,24.40
2018-04-18T12:04:05.018Z,24.70
2018-04-18T12:14:09.058Z,24.80
2018-04-18T12:19:11.308Z,24.90
2018-04-18T12:24:13.168Z,25.00
2018-04-18T12:39:21.163Z,24.90
2018-04-18T12:44:22.308Z,24.90
2018-04-18T12:49:24.506Z,25.00
2018-04-18T12:54:25.991Z,25.00
2018-04-18T12:59:27.090Z,25.00
2018-04-18T13:09:31.091Z,25.10
2018-04-18T13:14:32.229Z,25.10
2018-04-18T13:19:34.858Z,25.10
2018-04-18T13:24:36.015Z,25.20
2018-04-18T13:29:37.138Z,25.40
2018-04-18T13:34:39.333Z,25.50
2018-04-18T13:39:41.026Z,25.60
2018-04-18T13:49:46.126Z,25.40
2018-04-18T13:54:47.651Z,25.40
2018-04-18T14:14:57.337Z,25.90
2018-04-18T14:25:01.304Z,26.00
2018-04-18T14:30:02.414Z,26.10
2018-04-18T14:35:03.631Z,26.10
2018-04-18T14:40:05.469Z,26.10
2018-04-18T14:45:06.569Z,26.10
2018-04-18T14:55:10.569Z,26.20
2018-04-18T15:00:12.422Z,26.20
2018-04-18T15:05:13.564Z,26.20
2018-04-18T15:10:14.625Z,26.10
2018-04-18T15:20:19.792Z,26.00
2018-04-18T15:30:24.049Z,26.10
2018-04-18T15:35:25.561Z,26.10
2018-04-18T15:40:26.684Z,26.00
2018-04-18T15:45:27.828Z,26.10
2018-04-18T15:50:28.999Z,26.00
2018-04-18T15:55:31.865Z,26.00
2018-04-18T16:00:33.725Z,26.00
2018-04-18T16:10:38.987Z,25.90
2018-04-18T16:15:41.201Z,25.90
2018-04-18T16:20:42.665Z,25.90
2018-04-18T16:25:44.901Z,25.80
2018-04-18T16:30:46.026Z,25.90
2018-04-18T16:35:47.198Z,25.80
2018-04-18T16:40:48.753Z,25.80
2018-04-18T16:45:49.881Z,25.80
2018-04-18T16:50:51.713Z,25.70
2018-04-18T16:55:52.821Z,25.60
2018-04-18T17:00:54.301Z,25.40
2018-04-18T17:05:55.381Z,25.40
2018-04-18T17:10:57.053Z,25.30
2018-04-18T17:21:01.437Z,25.10
2018-04-18T17:26:03.706Z,24.90
2018-04-18T17:31:11.828Z,24.80
2018-04-18T17:36:13.665Z,24.60
2018-04-18T17:41:14.758Z,24.50
2018-04-18T17:46:16.224Z,24.30
2018-04-18T17:51:17.433Z,24.20
2018-04-18T17:56:19.302Z,24.00
2018-04-18T18:01:20.799Z,23.80
2018-04-18T18:06:23.032Z,23.70
2018-04-18T18:11:24.227Z,23.50
2018-04-18T18:16:25.340Z,23.30
2018-04-18T18:21:28.284Z,23.10
2018-04-18T18:26:29.407Z,22.90
2018-04-18T18:31:30.723Z,22.70
2018-04-18T18:36:32.854Z,22.60
2018-04-18T18:41:34.362Z,22.40
2018-04-18T18:51:38.332Z,22.10
2018-04-18T18:56:39.463Z,21.90
2018-04-18T19:01:42.146Z,21.70
2018-04-18T19:06:45.023Z,21.20
2018-04-18T19:11:46.227Z,20.90
2018-04-18T19:16:48.616Z,20.70
2018-04-18T19:21:50.525Z,20.50
2018-04-18T19:26:51.716Z,20.30
2018-04-18T19:31:52.881Z,20.10
2018-04-18T19:36:54.858Z,19.90
2018-04-18T19:46:59.665Z,19.30
2018-04-18T19:52:00.873Z,19.10
2018-04-18T19:57:02.008Z,18.90
2018-04-18T20:02:03.101Z,18.70
2018-04-18T20:12:07.086Z,18.30
2018-04-18T20:17:08.193Z,18.20
2018-04-18T20:22:10.788Z,18.10
2018-04-18T20:27:12.679Z,18.00
2018-04-18T20:32:14.144Z,17.90
2018-04-18T20:37:16.626Z,18.00
2018-04-18T20:42:19.338Z,18.00
2018-04-18T20:47:21.181Z,17.90
2018-04-18T20:52:23.066Z,17.90
2018-04-18T20:57:24.176Z,18.00
2018-04-18T21:02:25.258Z,17.80
2018-04-18T21:07:26.353Z,17.70
2018-04-18T21:12:28.217Z,17.70
2018-04-18T21:17:29.822Z,17.80
2018-04-18T21:22:31.655Z,17.80
2018-04-18T21:27:32.773Z,17.70
2018-04-18T21:32:34.507Z,17.70
2018-04-18T21:42:39.022Z,17.50
2018-04-18T21:47:41.725Z,17.40
2018-04-18T21:52:43.178Z,17.40
2018-04-18T21:57:46.014Z,17.40
2018-04-18T22:02:47.716Z,17.30
2018-04-18T22:07:48.883Z,17.30
2018-04-18T22:12:50.709Z,17.20
2018-04-18T22:17:52.569Z,17.10
2018-04-18T22:22:54.044Z,17.10
2018-04-18T22:27:55.223Z,17.10
2018-04-18T22:32:56.305Z,17.00
2018-04-18T22:37:57.381Z,16.90
2018-04-18T22:42:59.283Z,16.80
2018-04-18T22:48:00.805Z,16.80
2018-04-18T22:53:01.894Z,16.70
2018-04-18T22:58:03.478Z,16.80
2018-04-18T23:03:04.590Z,16.70
2018-04-18T23:08:05.732Z,16.70
2018-04-18T23:13:07.629Z,16.60
2018-04-18T23:18:09.473Z,16.50
2018-04-18T23:23:10.973Z,16.40
2018-04-18T23:28:12.824Z,16.40
2018-04-18T23:33:15.277Z,16.60
2018-04-18T23:38:16.369Z,16.60
2018-04-18T23:43:18.579Z,16.60
2018-04-18T23:48:20.538Z,16.50
2018-04-18T23:53:21.942Z,16.40
2018-04-18T23:58:24.242Z,16.40
